sensor_id;sensor_type;location;lat;lon;timestamp;P1;durP1;ratioP1;P2;durP2;ratioP2
83649;SDS011;73612;50.948;6.956;2024-01-16T00:01:27;24.87;;;14.30;;
83649;SDS011;73612;50.948;6.956;2024-01-16T00:03:54;40.57;;;18.07;;
83649;SDS011;73612;50.948;6.956;2024-01-16T00:06:20;34.73;;;14.17;;
83649;SDS011;73612;50.948;6.956;2024-01-16T00:08:47;37.60;;;16.47;;
83649;SDS011;73612;50.948;6.956;2024-01-16T00:11:14;36.67;;;16.83;;
83649;SDS011;73612;50.948;6.956;2024-01-16T00:13:40;34.17;;;15.43;;
83649;SDS011;73612;50.948;6.956;2024-01-16T00:16:07;48.40;;;21.77;;
83649;SDS011;73612;50.948;6.956;2024-01-16T00:18:34;36.63;;;16.60;;
83649;SDS011;73612;50.948;6.956;2024-01-16T00:21:01;47.97;;;20.90;;
83649;SDS011;73612;50.948;6.956;2024-01-16T00:23:27;36.87;;;18.43;;
83649;SDS011;73612;50.948;6.956;2024-01-16T00:25:53;37.83;;;17.73;;
83649;SDS011;73612;50.948;6.956;2024-01-16T00:28:20;35.57;;;17.47;;
83649;SDS011;73612;50.948;6.956;2024-01-16T00:30:46;34.23;;;15.47;;
83649;SDS011;73612;50.948;6.956;2024-01-16T00:33:13;53.40;;;20.60;;
83649;SDS011;73612;50.948;6.956;2024-01-16T00:35:40;53.33;;;21.03;;
83649;SDS011;73612;50.948;6.956;2024-01-16T00:38:06;51.43;;;19.50;;
83649;SDS011;73612;50.948;6.956;2024-01-16T00:40:33;49.27;;;20.23;;
83649;SDS011;73612;50.948;6.956;2024-01-16T00:42:59;30.53;;;15.63;;
83649;SDS011;73612;50.948;6.956;2024-01-16T00:45:26;79.30;;;32.57;;
83649;SDS011;73612;50.948;6.956;2024-01-16T00:47:53;91.33;;;32.83;;
83649;SDS011;73612;50.948;6.956;2024-01-16T00:50:19;211.33;;;62.50;;
83649;SDS011;73612;50.948;6.956;2024-01-16T00:52:46;67.07;;;29.73;;
83649;SDS011;73612;50.948;6.956;2024-01-16T00:55:12;44.93;;;19.67;;
83649;SDS011;73612;50.948;6.956;2024-01-16T00:57:39;35.60;;;16.20;;
83649;SDS011;73612;50.948;6.956;2024-01-16T01:00:06;34.63;;;17.67;;
83649;SDS011;73612;50.948;6.956;2024-01-16T01:02:33;36.87;;;17.37;;
83649;SDS011;73612;50.948;6.956;2024-01-16T01:04:59;36.93;;;17.23;;
83649;SDS011;73612;50.948;6.956;2024-01-16T01:07:26;30.47;;;16.13;;
83649;SDS011;73612;50.948;6.956;2024-01-16T01:09:53;25.53;;;14.67;;
83649;SDS011;73612;50.948;6.956;2024-01-16T01:12:19;37.90;;;17.33;;
83649;SDS011;73612;50.948;6.956;2024-01-16T01:14:46;32.30;;;15.53;;
83649;SDS011;73612;50.948;6.956;2024-01-16T01:17:12;45.33;;;18.33;;
83649;SDS011;73612;50.948;6.956;2024-01-16T01:19:39;44.30;;;20.27;;
83649;SDS011;73612;50.948;6.956;2024-01-16T01:22:06;33.33;;;17.73;;
83649;SDS011;73612;50.948;6.956;2024-01-16T01:24:32;41.77;;;18.33;;
83649;SDS011;73612;50.948;6.956;2024-01-16T01:26:59;33.93;;;16.07;;
83649;SDS011;73612;50.948;6.956;2024-01-16T01:29:25;42.80;;;19.77;;
83649;SDS011;73612;50.948;6.956;2024-01-16T01:31:52;37.57;;;15.87;;
83649;SDS011;73612;50.948;6.956;2024-01-16T01:34:18;37.60;;;16.97;;
83649;SDS011;73612;50.948;6.956;2024-01-16T01:36:45;28.33;;;15.90;;
83649;SDS011;73612;50.948;6.956;2024-01-16T01:39:12;48.03;;;18.17;;
83649;SDS011;73612;50.948;6.956;2024-01-16T01:41:38;53.93;;;20.53;;
83649;SDS011;73612;50.948;6.956;2024-01-16T01:44:05;31.30;;;14.60;;
83649;SDS011;73612;50.948;6.956;2024-01-16T01:46:32;37.33;;;19.40;;
83649;SDS011;73612;50.948;6.956;2024-01-16T01:48:58;21.37;;;12.33;;
83649;SDS011;73612;50.948;6.956;2024-01-16T01:51:25;22.37;;;12.83;;
83649;SDS011;73612;50.948;6.956;2024-01-16T01:53:51;31.47;;;12.63;;
83649;SDS011;73612;50.948;6.956;2024-01-16T01:56:18;29.00;;;13.87;;
83649;SDS011;73612;50.948;6.956;2024-01-16T01:58:46;38.63;;;14.33;;
83649;SDS011;73612;50.948;6.956;2024-01-16T02:01:12;31.87;;;14.00;;
83649;SDS011;73612;50.948;6.956;2024-01-16T02:03:43;26.63;;;13.33;;
83649;SDS011;73612;50.948;6.956;2024-01-16T02:06:09;25.87;;;14.27;;
83649;SDS011;73612;50.948;6.956;2024-01-16T02:08:36;51.77;;;22.43;;
83649;SDS011;73612;50.948;6.956;2024-01-16T02:11:03;64.90;;;27.20;;
83649;SDS011;73612;50.948;6.956;2024-01-16T02:13:29;40.37;;;19.57;;
83649;SDS011;73612;50.948;6.956;2024-01-16T02:15:56;43.30;;;17.57;;
83649;SDS011;73612;50.948;6.956;2024-01-16T02:18:23;26.70;;;15.23;;
83649;SDS011;73612;50.948;6.956;2024-01-16T02:20:49;32.63;;;16.07;;
83649;SDS011;73612;50.948;6.956;2024-01-16T02:23:16;44.10;;;17.33;;
83649;SDS011;73612;50.948;6.956;2024-01-16T02:25:42;42.27;;;20.47;;
83649;SDS011;73612;50.948;6.956;2024-01-16T02:28:09;61.77;;;26.17;;
83649;SDS011;73612;50.948;6.956;2024-01-16T02:30:36;50.77;;;22.67;;
83649;SDS011;73612;50.948;6.956;2024-01-16T02:33:02;40.20;;;17.87;;
83649;SDS011;73612;50.948;6.956;2024-01-16T02:35:29;34.13;;;18.70;;
83649;SDS011;73612;50.948;6.956;2024-01-16T02:37:55;37.63;;;19.50;;
83649;SDS011;73612;50.948;6.956;2024-01-16T02:40:22;30.03;;;15.73;;
83649;SDS011;73612;50.948;6.956;2024-01-16T02:42:49;30.73;;;16.17;;
83649;SDS011;73612;50.948;6.956;2024-01-16T02:45:15;28.27;;;15.23;;
83649;SDS011;73612;50.948;6.956;2024-01-16T02:47:42;44.80;;;18.07;;
83649;SDS011;73612;50.948;6.956;2024-01-16T02:50:08;32.10;;;15.27;;
83649;SDS011;73612;50.948;6.956;2024-01-16T02:52:36;26.27;;;13.33;;
83649;SDS011;73612;50.948;6.956;2024-01-16T02:55:03;31.00;;;14.43;;
83649;SDS011;73612;50.948;6.956;2024-01-16T02:57:29;29.73;;;14.30;;
83649;SDS011;73612;50.948;6.956;2024-01-16T02:59:56;32.23;;;15.43;;
83649;SDS011;73612;50.948;6.956;2024-01-16T03:02:23;37.27;;;13.67;;
83649;SDS011;73612;50.948;6.956;2024-01-16T03:04:49;32.00;;;15.37;;
83649;SDS011;73612;50.948;6.956;2024-01-16T03:07:16;43.40;;;14.53;;
83649;SDS011;73612;50.948;6.956;2024-01-16T03:09:42;33.53;;;16.30;;
83649;SDS011;73612;50.948;6.956;2024-01-16T03:12:09;36.50;;;16.67;;
83649;SDS011;73612;50.948;6.956;2024-01-16T03:14:36;42.83;;;18.03;;
83649;SDS011;73612;50.948;6.956;2024-01-16T03:17:02;37.13;;;17.40;;
83649;SDS011;73612;50.948;6.956;2024-01-16T03:19:29;35.73;;;16.20;;
83649;SDS011;73612;50.948;6.956;2024-01-16T03:21:56;32.03;;;16.77;;
83649;SDS011;73612;50.948;6.956;2024-01-16T03:24:22;32.77;;;15.27;;
83649;SDS011;73612;50.948;6.956;2024-01-16T03:26:49;29.73;;;14.60;;
83649;SDS011;73612;50.948;6.956;2024-01-16T03:29:15;35.00;;;15.67;;
83649;SDS011;73612;50.948;6.956;2024-01-16T03:31:42;34.60;;;15.43;;
83649;SDS011;73612;50.948;6.956;2024-01-16T03:34:09;43.70;;;15.80;;
83649;SDS011;73612;50.948;6.956;2024-01-16T03:36:35;34.93;;;15.00;;
83649;SDS011;73612;50.948;6.956;2024-01-16T03:39:02;35.43;;;15.00;;
83649;SDS011;73612;50.948;6.956;2024-01-16T03:41:28;31.97;;;16.60;;
83649;SDS011;73612;50.948;6.956;2024-01-16T03:43:55;35.37;;;15.30;;
83649;SDS011;73612;50.948;6.956;2024-01-16T03:46:22;27.50;;;13.90;;
83649;SDS011;73612;50.948;6.956;2024-01-16T03:48:48;39.47;;;15.63;;
83649;SDS011;73612;50.948;6.956;2024-01-16T03:51:15;33.07;;;14.77;;
83649;SDS011;73612;50.948;6.956;2024-01-16T03:53:41;37.37;;;16.63;;
83649;SDS011;73612;50.948;6.956;2024-01-16T03:56:08;28.40;;;15.63;;
83649;SDS011;73612;50.948;6.956;2024-01-16T03:58:34;34.90;;;16.00;;
83649;SDS011;73612;50.948;6.956;2024-01-16T04:01:01;39.07;;;18.53;;
83649;SDS011;73612;50.948;6.956;2024-01-16T04:03:28;36.80;;;17.67;;
83649;SDS011;73612;50.948;6.956;2024-01-16T04:05:54;44.67;;;17.47;;
83649;SDS011;73612;50.948;6.956;2024-01-16T04:08:21;34.03;;;18.00;;
83649;SDS011;73612;50.948;6.956;2024-01-16T04:10:47;38.80;;;18.80;;
83649;SDS011;73612;50.948;6.956;2024-01-16T04:13:14;31.20;;;15.57;;
83649;SDS011;73612;50.948;6.956;2024-01-16T04:15:41;41.33;;;18.73;;
83649;SDS011;73612;50.948;6.956;2024-01-16T04:18:07;41.67;;;20.27;;
83649;SDS011;73612;50.948;6.956;2024-01-16T04:20:34;37.50;;;18.93;;
83649;SDS011;73612;50.948;6.956;2024-01-16T04:23:00;42.17;;;20.13;;
83649;SDS011;73612;50.948;6.956;2024-01-16T04:25:27;33.13;;;19.17;;
83649;SDS011;73612;50.948;6.956;2024-01-16T04:27:54;43.13;;;20.23;;
83649;SDS011;73612;50.948;6.956;2024-01-16T04:30:20;44.70;;;20.97;;
83649;SDS011;73612;50.948;6.956;2024-01-16T04:32:47;39.60;;;19.93;;
83649;SDS011;73612;50.948;6.956;2024-01-16T04:35:13;36.90;;;19.13;;
83649;SDS011;73612;50.948;6.956;2024-01-16T04:37:40;38.47;;;20.03;;
83649;SDS011;73612;50.948;6.956;2024-01-16T04:40:07;36.23;;;17.73;;
83649;SDS011;73612;50.948;6.956;2024-01-16T04:42:34;37.37;;;18.87;;
83649;SDS011;73612;50.948;6.956;2024-01-16T04:45:00;37.30;;;17.87;;
83649;SDS011;73612;50.948;6.956;2024-01-16T04:47:27;41.97;;;17.07;;
83649;SDS011;73612;50.948;6.956;2024-01-16T04:49:53;30.20;;;16.20;;
83649;SDS011;73612;50.948;6.956;2024-01-16T04:52:20;34.07;;;17.97;;
83649;SDS011;73612;50.948;6.956;2024-01-16T04:54:47;30.57;;;14.00;;
83649;SDS011;73612;50.948;6.956;2024-01-16T04:57:13;37.97;;;14.53;;
83649;SDS011;73612;50.948;6.956;2024-01-16T04:59:40;30.63;;;13.17;;
83649;SDS011;73612;50.948;6.956;2024-01-16T05:02:06;32.10;;;14.90;;
83649;SDS011;73612;50.948;6.956;2024-01-16T05:04:36;27.90;;;12.23;;
83649;SDS011;73612;50.948;6.956;2024-01-16T05:07:00;34.53;;;12.73;;
83649;SDS011;73612;50.948;6.956;2024-01-16T05:09:26;36.07;;;12.97;;
83649;SDS011;73612;50.948;6.956;2024-01-16T05:11:53;34.40;;;11.50;;
83649;SDS011;73612;50.948;6.956;2024-01-16T05:14:19;28.43;;;11.07;;
83649;SDS011;73612;50.948;6.956;2024-01-16T05:16:46;28.50;;;12.03;;
83649;SDS011;73612;50.948;6.956;2024-01-16T05:19:12;27.43;;;10.73;;
83649;SDS011;73612;50.948;6.956;2024-01-16T05:21:40;28.20;;;10.37;;
83649;SDS011;73612;50.948;6.956;2024-01-16T05:24:06;34.77;;;11.53;;
83649;SDS011;73612;50.948;6.956;2024-01-16T05:26:32;29.70;;;10.47;;
83649;SDS011;73612;50.948;6.956;2024-01-16T05:28:59;25.17;;;10.57;;
83649;SDS011;73612;50.948;6.956;2024-01-16T05:31:25;32.53;;;12.00;;
83649;SDS011;73612;50.948;6.956;2024-01-16T05:33:52;24.73;;;11.30;;
83649;SDS011;73612;50.948;6.956;2024-01-16T05:36:19;34.83;;;11.17;;
83649;SDS011;73612;50.948;6.956;2024-01-16T05:38:45;34.00;;;11.67;;
83649;SDS011;73612;50.948;6.956;2024-01-16T05:41:12;27.73;;;11.53;;
83649;SDS011;73612;50.948;6.956;2024-01-16T05:43:38;31.67;;;11.13;;
83649;SDS011;73612;50.948;6.956;2024-01-16T05:46:05;30.40;;;11.57;;
83649;SDS011;73612;50.948;6.956;2024-01-16T05:48:32;34.33;;;13.50;;
83649;SDS011;73612;50.948;6.956;2024-01-16T05:50:58;31.23;;;12.03;;
83649;SDS011;73612;50.948;6.956;2024-01-16T05:53:25;39.37;;;14.47;;
83649;SDS011;73612;50.948;6.956;2024-01-16T05:55:51;25.17;;;12.33;;
83649;SDS011;73612;50.948;6.956;2024-01-16T05:58:18;28.20;;;11.80;;
83649;SDS011;73612;50.948;6.956;2024-01-16T06:00:45;29.20;;;11.57;;
83649;SDS011;73612;50.948;6.956;2024-01-16T06:03:11;32.47;;;11.93;;
83649;SDS011;73612;50.948;6.956;2024-01-16T06:05:38;27.07;;;12.90;;
83649;SDS011;73612;50.948;6.956;2024-01-16T06:08:04;31.97;;;12.23;;
83649;SDS011;73612;50.948;6.956;2024-01-16T06:10:31;28.53;;;11.20;;
83649;SDS011;73612;50.948;6.956;2024-01-16T06:12:58;28.83;;;11.43;;
83649;SDS011;73612;50.948;6.956;2024-01-16T06:15:24;28.50;;;11.80;;
83649;SDS011;73612;50.948;6.956;2024-01-16T06:17:51;24.33;;;11.27;;
83649;SDS011;73612;50.948;6.956;2024-01-16T06:20:17;30.73;;;11.27;;
83649;SDS011;73612;50.948;6.956;2024-01-16T06:22:44;37.47;;;11.00;;
83649;SDS011;73612;50.948;6.956;2024-01-16T06:25:11;27.37;;;10.57;;
83649;SDS011;73612;50.948;6.956;2024-01-16T06:27:37;28.33;;;10.37;;
83649;SDS011;73612;50.948;6.956;2024-01-16T06:30:04;27.37;;;10.67;;
83649;SDS011;73612;50.948;6.956;2024-01-16T06:32:31;25.03;;;9.67;;
83649;SDS011;73612;50.948;6.956;2024-01-16T06:34:57;34.57;;;9.87;;
83649;SDS011;73612;50.948;6.956;2024-01-16T06:37:24;23.20;;;10.20;;
83649;SDS011;73612;50.948;6.956;2024-01-16T06:39:50;32.90;;;11.10;;
83649;SDS011;73612;50.948;6.956;2024-01-16T06:42:17;33.27;;;11.17;;
83649;SDS011;73612;50.948;6.956;2024-01-16T06:44:44;25.10;;;8.63;;
83649;SDS011;73612;50.948;6.956;2024-01-16T06:47:10;29.07;;;9.97;;
83649;SDS011;73612;50.948;6.956;2024-01-16T06:49:37;23.77;;;9.13;;
83649;SDS011;73612;50.948;6.956;2024-01-16T06:52:03;33.57;;;10.13;;
83649;SDS011;73612;50.948;6.956;2024-01-16T06:54:30;30.27;;;9.23;;
83649;SDS011;73612;50.948;6.956;2024-01-16T06:56:57;23.13;;;9.47;;
83649;SDS011;73612;50.948;6.956;2024-01-16T06:59:23;32.73;;;10.30;;
83649;SDS011;73612;50.948;6.956;2024-01-16T07:01:50;27.10;;;11.37;;
83649;SDS011;73612;50.948;6.956;2024-01-16T07:04:16;27.60;;;10.97;;
83649;SDS011;73612;50.948;6.956;2024-01-16T07:06:43;26.27;;;9.20;;
83649;SDS011;73612;50.948;6.956;2024-01-16T07:09:10;22.70;;;7.90;;
83649;SDS011;73612;50.948;6.956;2024-01-16T07:11:37;18.57;;;7.70;;
83649;SDS011;73612;50.948;6.956;2024-01-16T07:14:03;27.20;;;8.70;;
83649;SDS011;73612;50.948;6.956;2024-01-16T07:16:29;21.10;;;8.40;;
83649;SDS011;73612;50.948;6.956;2024-01-16T07:18:56;19.70;;;7.83;;
83649;SDS011;73612;50.948;6.956;2024-01-16T07:21:23;20.50;;;8.00;;
83649;SDS011;73612;50.948;6.956;2024-01-16T07:23:49;28.43;;;8.30;;
83649;SDS011;73612;50.948;6.956;2024-01-16T07:26:16;23.00;;;7.80;;
83649;SDS011;73612;50.948;6.956;2024-01-16T07:28:42;24.70;;;6.83;;
83649;SDS011;73612;50.948;6.956;2024-01-16T07:31:09;27.37;;;7.53;;
83649;SDS011;73612;50.948;6.956;2024-01-16T07:33:36;20.93;;;6.40;;
83649;SDS011;73612;50.948;6.956;2024-01-16T07:36:02;18.63;;;7.03;;
83649;SDS011;73612;50.948;6.956;2024-01-16T07:38:29;20.93;;;6.87;;
83649;SDS011;73612;50.948;6.956;2024-01-16T07:40:55;18.93;;;7.33;;
83649;SDS011;73612;50.948;6.956;2024-01-16T07:43:22;19.10;;;6.80;;
83649;SDS011;73612;50.948;6.956;2024-01-16T07:45:49;24.83;;;7.37;;
83649;SDS011;73612;50.948;6.956;2024-01-16T07:48:15;19.13;;;6.07;;
83649;SDS011;73612;50.948;6.956;2024-01-16T07:50:42;22.87;;;7.40;;
83649;SDS011;73612;50.948;6.956;2024-01-16T07:53:08;21.53;;;6.70;;
83649;SDS011;73612;50.948;6.956;2024-01-16T07:55:35;21.97;;;7.10;;
83649;SDS011;73612;50.948;6.956;2024-01-16T07:58:02;21.97;;;7.23;;
83649;SDS011;73612;50.948;6.956;2024-01-16T08:00:28;24.60;;;6.97;;
83649;SDS011;73612;50.948;6.956;2024-01-16T08:02:55;20.73;;;7.27;;
83649;SDS011;73612;50.948;6.956;2024-01-16T08:05:21;21.60;;;6.97;;
83649;SDS011;73612;50.948;6.956;2024-01-16T08:07:48;19.10;;;6.23;;
83649;SDS011;73612;50.948;6.956;2024-01-16T08:10:15;24.00;;;7.03;;
83649;SDS011;73612;50.948;6.956;2024-01-16T08:12:41;15.87;;;5.70;;
83649;SDS011;73612;50.948;6.956;2024-01-16T08:15:08;15.10;;;5.70;;
83649;SDS011;73612;50.948;6.956;2024-01-16T08:17:35;22.03;;;5.90;;
83649;SDS011;73612;50.948;6.956;2024-01-16T08:20:01;25.33;;;6.40;;
83649;SDS011;73612;50.948;6.956;2024-01-16T08:22:28;15.07;;;5.23;;
83649;SDS011;73612;50.948;6.956;2024-01-16T08:24:55;20.57;;;5.80;;
83649;SDS011;73612;50.948;6.956;2024-01-16T08:27:21;16.43;;;5.90;;
83649;SDS011;73612;50.948;6.956;2024-01-16T08:29:48;16.10;;;5.70;;
83649;SDS011;73612;50.948;6.956;2024-01-16T08:32:14;22.90;;;6.10;;
83649;SDS011;73612;50.948;6.956;2024-01-16T08:34:41;18.10;;;6.40;;
83649;SDS011;73612;50.948;6.956;2024-01-16T08:37:07;22.93;;;5.50;;
83649;SDS011;73612;50.948;6.956;2024-01-16T08:39:34;18.97;;;5.60;;
83649;SDS011;73612;50.948;6.956;2024-01-16T08:42:01;21.30;;;6.10;;
83649;SDS011;73612;50.948;6.956;2024-01-16T08:44:28;13.23;;;5.17;;
83649;SDS011;73612;50.948;6.956;2024-01-16T08:46:54;14.37;;;4.97;;
83649;SDS011;73612;50.948;6.956;2024-01-16T08:49:21;15.83;;;5.30;;
83649;SDS011;73612;50.948;6.956;2024-01-16T08:51:48;9.97;;;4.30;;
83649;SDS011;73612;50.948;6.956;2024-01-16T08:54:14;17.83;;;5.73;;
83649;SDS011;73612;50.948;6.956;2024-01-16T08:56:41;27.80;;;5.97;;
83649;SDS011;73612;50.948;6.956;2024-01-16T08:59:07;31.40;;;6.40;;
83649;SDS011;73612;50.948;6.956;2024-01-16T09:01:34;19.07;;;5.63;;
83649;SDS011;73612;50.948;6.956;2024-01-16T09:04:01;21.33;;;5.90;;
83649;SDS011;73612;50.948;6.956;2024-01-16T09:06:27;15.83;;;4.80;;
83649;SDS011;73612;50.948;6.956;2024-01-16T09:08:54;16.37;;;5.30;;
83649;SDS011;73612;50.948;6.956;2024-01-16T09:11:20;13.47;;;5.00;;
83649;SDS011;73612;50.948;6.956;2024-01-16T09:13:47;15.73;;;5.87;;
83649;SDS011;73612;50.948;6.956;2024-01-16T09:16:14;12.93;;;5.70;;
83649;SDS011;73612;50.948;6.956;2024-01-16T09:18:40;24.50;;;6.77;;
83649;SDS011;73612;50.948;6.956;2024-01-16T09:21:07;23.63;;;6.57;;
83649;SDS011;73612;50.948;6.956;2024-01-16T09:23:33;23.80;;;6.87;;
83649;SDS011;73612;50.948;6.956;2024-01-16T09:26:00;25.67;;;7.60;;
83649;SDS011;73612;50.948;6.956;2024-01-16T09:28:26;15.37;;;5.50;;
83649;SDS011;73612;50.948;6.956;2024-01-16T09:30:53;17.20;;;6.27;;
83649;SDS011;73612;50.948;6.956;2024-01-16T09:33:20;21.53;;;6.37;;
83649;SDS011;73612;50.948;6.956;2024-01-16T09:35:46;15.00;;;5.93;;
83649;SDS011;73612;50.948;6.956;2024-01-16T09:38:13;19.30;;;5.60;;
83649;SDS011;73612;50.948;6.956;2024-01-16T09:40:39;19.80;;;5.50;;
83649;SDS011;73612;50.948;6.956;2024-01-16T09:43:06;28.53;;;6.67;;
83649;SDS011;73612;50.948;6.956;2024-01-16T09:45:33;18.20;;;6.53;;
83649;SDS011;73612;50.948;6.956;2024-01-16T09:47:59;31.70;;;12.10;;
83649;SDS011;73612;50.948;6.956;2024-01-16T09:50:26;40.17;;;14.27;;
83649;SDS011;73612;50.948;6.956;2024-01-16T09:52:52;20.00;;;7.20;;
83649;SDS011;73612;50.948;6.956;2024-01-16T09:55:19;19.00;;;6.30;;
83649;SDS011;73612;50.948;6.956;2024-01-16T09:57:46;28.57;;;7.30;;
83649;SDS011;73612;50.948;6.956;2024-01-16T10:00:12;44.97;;;17.13;;
83649;SDS011;73612;50.948;6.956;2024-01-16T10:02:39;75.50;;;23.90;;
83649;SDS011;73612;50.948;6.956;2024-01-16T10:05:06;64.20;;;22.63;;
83649;SDS011;73612;50.948;6.956;2024-01-16T10:07:35;48.17;;;14.17;;
83649;SDS011;73612;50.948;6.956;2024-01-16T10:10:02;19.27;;;8.23;;
83649;SDS011;73612;50.948;6.956;2024-01-16T10:12:28;25.80;;;7.83;;
83649;SDS011;73612;50.948;6.956;2024-01-16T10:14:55;16.80;;;6.63;;
83649;SDS011;73612;50.948;6.956;2024-01-16T10:17:21;26.53;;;7.30;;
83649;SDS011;73612;50.948;6.956;2024-01-16T10:19:48;25.03;;;6.63;;
83649;SDS011;73612;50.948;6.956;2024-01-16T10:22:22;15.03;;;5.73;;
83649;SDS011;73612;50.948;6.956;2024-01-16T10:24:49;25.93;;;6.90;;
83649;SDS011;73612;50.948;6.956;2024-01-16T10:27:16;20.57;;;7.53;;
83649;SDS011;73612;50.948;6.956;2024-01-16T10:29:54;24.20;;;10.47;;
83649;SDS011;73612;50.948;6.956;2024-01-16T10:32:36;42.57;;;15.87;;
83649;SDS011;73612;50.948;6.956;2024-01-16T10:35:06;27.90;;;10.70;;
83649;SDS011;73612;50.948;6.956;2024-01-16T10:37:40;34.27;;;10.93;;
83649;SDS011;73612;50.948;6.956;2024-01-16T10:40:07;25.53;;;8.37;;
83649;SDS011;73612;50.948;6.956;2024-01-16T10:42:34;37.27;;;10.87;;
83649;SDS011;73612;50.948;6.956;2024-01-16T10:45:00;17.80;;;6.83;;
83649;SDS011;73612;50.948;6.956;2024-01-16T10:47:27;16.73;;;6.50;;
83649;SDS011;73612;50.948;6.956;2024-01-16T10:49:54;23.37;;;7.57;;
83649;SDS011;73612;50.948;6.956;2024-01-16T10:52:20;38.47;;;13.77;;
83649;SDS011;73612;50.948;6.956;2024-01-16T10:54:47;51.77;;;18.60;;
83649;SDS011;73612;50.948;6.956;2024-01-16T10:57:13;28.00;;;7.07;;
83649;SDS011;73612;50.948;6.956;2024-01-16T10:59:48;44.27;;;11.77;;
83649;SDS011;73612;50.948;6.956;2024-01-16T11:02:11;37.87;;;13.10;;
83649;SDS011;73612;50.948;6.956;2024-01-16T11:04:38;31.90;;;12.73;;
83649;SDS011;73612;50.948;6.956;2024-01-16T11:07:04;35.80;;;14.73;;
83649;SDS011;73612;50.948;6.956;2024-01-16T11:09:31;87.20;;;25.97;;
83649;SDS011;73612;50.948;6.956;2024-01-16T11:11:57;98.23;;;31.50;;
83649;SDS011;73612;50.948;6.956;2024-01-16T11:14:24;66.20;;;20.20;;
83649;SDS011;73612;50.948;6.956;2024-01-16T11:16:51;71.47;;;28.43;;
83649;SDS011;73612;50.948;6.956;2024-01-16T11:19:17;143.23;;;44.60;;
83649;SDS011;73612;50.948;6.956;2024-01-16T11:21:44;196.67;;;57.33;;
83649;SDS011;73612;50.948;6.956;2024-01-16T11:24:11;71.70;;;25.33;;
83649;SDS011;73612;50.948;6.956;2024-01-16T11:26:40;41.27;;;12.60;;
83649;SDS011;73612;50.948;6.956;2024-01-16T11:31:45;153.87;;;47.63;;
83649;SDS011;73612;50.948;6.956;2024-01-16T11:34:12;192.00;;;49.67;;
83649;SDS011;73612;50.948;6.956;2024-01-16T11:36:47;106.60;;;32.80;;
83649;SDS011;73612;50.948;6.956;2024-01-16T11:39:17;115.47;;;37.33;;
83649;SDS011;73612;50.948;6.956;2024-01-16T11:47:00;83.83;;;30.60;;
83649;SDS011;73612;50.948;6.956;2024-01-16T11:49:26;90.43;;;30.23;;
83649;SDS011;73612;50.948;6.956;2024-01-16T11:51:52;30.67;;;9.67;;
83649;SDS011;73612;50.948;6.956;2024-01-16T11:54:19;42.90;;;13.53;;
83649;SDS011;73612;50.948;6.956;2024-01-16T11:56:55;75.87;;;26.30;;
83649;SDS011;73612;50.948;6.956;2024-01-16T12:02:02;74.50;;;26.50;;
83649;SDS011;73612;50.948;6.956;2024-01-16T12:04:29;98.77;;;27.73;;
83649;SDS011;73612;50.948;6.956;2024-01-16T12:06:56;36.63;;;12.43;;
83649;SDS011;73612;50.948;6.956;2024-01-16T12:09:25;80.30;;;30.00;;
83649;SDS011;73612;50.948;6.956;2024-01-16T12:14:25;129.63;;;39.97;;
83649;SDS011;73612;50.948;6.956;2024-01-16T12:16:52;75.53;;;25.93;;
83649;SDS011;73612;50.948;6.956;2024-01-16T12:19:18;16.17;;;7.20;;
83649;SDS011;73612;50.948;6.956;2024-01-16T12:21:45;30.43;;;12.83;;
83649;SDS011;73612;50.948;6.956;2024-01-16T12:24:11;30.73;;;10.00;;
83649;SDS011;73612;50.948;6.956;2024-01-16T12:26:38;22.47;;;8.70;;
83649;SDS011;73612;50.948;6.956;2024-01-16T12:29:05;21.53;;;9.57;;
83649;SDS011;73612;50.948;6.956;2024-01-16T12:31:32;28.80;;;10.03;;
83649;SDS011;73612;50.948;6.956;2024-01-16T12:34:07;21.03;;;8.80;;
83649;SDS011;73612;50.948;6.956;2024-01-16T12:36:34;239.27;;;68.57;;
83649;SDS011;73612;50.948;6.956;2024-01-16T12:39:00;90.20;;;28.60;;
83649;SDS011;73612;50.948;6.956;2024-01-16T12:41:28;91.60;;;34.07;;
83649;SDS011;73612;50.948;6.956;2024-01-16T12:43:54;86.53;;;28.40;;
83649;SDS011;73612;50.948;6.956;2024-01-16T12:46:21;119.77;;;42.20;;
83649;SDS011;73612;50.948;6.956;2024-01-16T12:48:48;233.67;;;76.00;;
83649;SDS011;73612;50.948;6.956;2024-01-16T12:51:20;96.70;;;31.83;;
83649;SDS011;73612;50.948;6.956;2024-01-16T12:53:48;80.30;;;30.47;;
83649;SDS011;73612;50.948;6.956;2024-01-16T12:56:17;136.47;;;46.00;;
83649;SDS011;73612;50.948;6.956;2024-01-16T12:58:41;39.13;;;15.73;;
83649;SDS011;73612;50.948;6.956;2024-01-16T13:03:47;84.70;;;29.97;;
83649;SDS011;73612;50.948;6.956;2024-01-16T13:06:17;179.03;;;52.07;;
83649;SDS011;73612;50.948;6.956;2024-01-16T13:08:43;47.77;;;18.03;;
83649;SDS011;73612;50.948;6.956;2024-01-16T13:11:10;90.43;;;30.73;;
83649;SDS011;73612;50.948;6.956;2024-01-16T13:13:37;42.43;;;17.90;;
83649;SDS011;73612;50.948;6.956;2024-01-16T13:16:04;34.90;;;12.50;;
83649;SDS011;73612;50.948;6.956;2024-01-16T13:18:32;29.97;;;11.63;;
83649;SDS011;73612;50.948;6.956;2024-01-16T13:20:59;72.10;;;24.67;;
83649;SDS011;73612;50.948;6.956;2024-01-16T13:23:26;97.20;;;34.07;;
83649;SDS011;73612;50.948;6.956;2024-01-16T13:25:53;48.13;;;14.33;;
83649;SDS011;73612;50.948;6.956;2024-01-16T13:28:20;90.50;;;31.57;;
83649;SDS011;73612;50.948;6.956;2024-01-16T13:30:47;122.57;;;37.50;;
83649;SDS011;73612;50.948;6.956;2024-01-16T13:33:13;38.17;;;14.93;;
83649;SDS011;73612;50.948;6.956;2024-01-16T13:35:41;38.97;;;15.50;;
83649;SDS011;73612;50.948;6.956;2024-01-16T13:38:08;45.27;;;15.67;;
83649;SDS011;73612;50.948;6.956;2024-01-16T13:40:35;48.67;;;20.10;;
83649;SDS011;73612;50.948;6.956;2024-01-16T13:43:02;89.43;;;28.93;;
83649;SDS011;73612;50.948;6.956;2024-01-16T13:45:29;65.57;;;23.10;;
83649;SDS011;73612;50.948;6.956;2024-01-16T13:47:58;26.80;;;11.20;;
83649;SDS011;73612;50.948;6.956;2024-01-16T13:50:25;20.63;;;8.87;;
83649;SDS011;73612;50.948;6.956;2024-01-16T13:52:51;22.47;;;8.47;;
83649;SDS011;73612;50.948;6.956;2024-01-16T13:55:18;22.23;;;8.37;;
83649;SDS011;73612;50.948;6.956;2024-01-16T13:57:44;17.70;;;7.40;;
83649;SDS011;73612;50.948;6.956;2024-01-16T14:00:11;36.83;;;13.00;;
83649;SDS011;73612;50.948;6.956;2024-01-16T14:02:39;66.60;;;22.10;;
83649;SDS011;73612;50.948;6.956;2024-01-16T14:05:07;128.30;;;39.57;;
83649;SDS011;73612;50.948;6.956;2024-01-16T14:07:34;30.30;;;11.93;;
83649;SDS011;73612;50.948;6.956;2024-01-16T14:10:01;104.77;;;33.40;;
83649;SDS011;73612;50.948;6.956;2024-01-16T14:12:28;85.70;;;26.27;;
83649;SDS011;73612;50.948;6.956;2024-01-16T14:14:55;187.03;;;59.50;;
83649;SDS011;73612;50.948;6.956;2024-01-16T14:17:21;127.10;;;44.63;;
83649;SDS011;73612;50.948;6.956;2024-01-16T14:19:49;84.17;;;31.47;;
83649;SDS011;73612;50.948;6.956;2024-01-16T14:22:16;40.50;;;15.60;;
83649;SDS011;73612;50.948;6.956;2024-01-16T14:24:42;24.53;;;10.43;;
83649;SDS011;73612;50.948;6.956;2024-01-16T14:27:09;82.00;;;29.43;;
83649;SDS011;73612;50.948;6.956;2024-01-16T14:29:37;136.60;;;42.37;;
83649;SDS011;73612;50.948;6.956;2024-01-16T14:32:03;28.03;;;9.93;;
83649;SDS011;73612;50.948;6.956;2024-01-16T14:34:30;48.30;;;18.90;;
83649;SDS011;73612;50.948;6.956;2024-01-16T14:36:57;82.77;;;27.23;;